Time;durP1;ratioP1;P1;durP2;ratioP2;P2;SDS_P1;SDS_P2;PMS_P1;PMS_P2;Temp;Humidity;BMP_temperature;BMP_pressure;BME280_temperature;BME280_humidity;BME280_pressure;Samples;Min_cycle;Max_cycle;Signal;HPM_P1;HPM_P2
2021/05/18 00:01:35;;;;;;;14.43;5.93;;;;;;;-142.75;67.10;77184.50;4983997;28;20475;-77
2021/05/18 00:04:01;;;;;;;21.55;6.97;;;;;;;-142.75;67.20;77180.56;4981237;28;20137;-77
2021/05/18 00:06:26;;;;;;;13.73;6.32;;;;;;;-142.75;66.97;77174.66;4965083;28;20169;-78
2021/05/18 00:11:46;;;;;;;15.20;6.68;;;;;;;-142.75;66.80;77172.69;4981862;28;20033;-77
2021/05/18 00:14:17;;;;;;;17.00;6.82;;;;;;;-142.75;66.79;77164.81;4958163;28;20053;-78
2021/05/18 00:16:43;;;;;;;15.60;6.60;;;;;;;-142.75;66.96;77168.75;4977693;28;20030;-77
2021/05/18 00:19:08;;;;;;;16.38;5.57;;;;;;;-142.75;66.89;77166.78;4957364;28;20039;-78
2021/05/18 00:21:34;;;;;;;18.63;5.63;;;;;;;-142.75;66.97;77166.78;4969286;28;20033;-78
2021/05/18 00:23:59;;;;;;;21.45;6.90;;;;;;;-142.75;66.98;77164.81;4980935;28;20041;-79
2021/05/18 00:26:25;;;;;;;15.05;6.53;;;;;;;-142.75;67.01;77160.88;4977827;28;20072;-79
2021/05/18 00:28:50;;;;;;;21.48;7.05;;;;;;;-142.75;67.26;77154.97;4979468;28;20034;-80
2021/05/18 00:31:15;;;;;;;19.10;7.80;;;;;;;-142.75;67.71;77151.03;4966510;28;20018;-80
2021/05/18 00:33:43;;;;;;;19.95;8.05;;;;;;;-142.75;68.10;77143.16;4964112;28;20506;-81
2021/05/18 00:36:08;;;;;;;23.38;9.45;;;;;;;-142.75;68.32;77153.00;4975396;28;20026;-80
2021/05/18 00:38:33;;;;;;;25.95;10.52;;;;;;;-142.75;68.26;77151.03;4990250;28;20049;-82
2021/05/18 00:40:59;;;;;;;21.63;10.18;;;;;;;-142.75;68.64;77154.97;4971230;28;20027;-82
2021/05/18 00:43:24;;;;;;;19.17;9.73;;;;;;;-142.75;68.71;77168.75;4985562;28;20469;-83
2021/05/18 00:45:51;;;;;;;19.45;9.93;;;;;;;-142.75;68.95;77180.56;4972519;28;20037;-84
2021/05/18 00:48:18;;;;;;;30.75;11.05;;;;;;;-142.75;69.22;77180.56;4987859;28;20022;-82
2021/05/18 00:50:50;;;;;;;23.80;11.38;;;;;;;-142.75;69.17;77176.63;4956939;28;20018;-83
2021/05/18 00:53:16;;;;;;;24.65;11.52;;;;;;;-142.75;69.40;77180.56;4975992;28;20022;-82
2021/05/18 00:55:52;;;;;;;23.90;11.57;;;;;;;-142.75;69.45;77170.72;4992356;28;20030;-82
2021/05/18 00:58:27;;;;;;;23.63;11.43;;;;;;;-142.75;69.50;77168.75;4972425;28;20029;-82
2021/05/18 01:00:55;;;;;;;27.38;12.30;;;;;;;-142.75;69.41;77174.66;4967398;28;20541;-82
2021/05/18 01:03:21;;;;;;;31.10;13.65;;;;;;;-142.75;69.24;77174.66;4972739;28;20034;-82
2021/05/18 01:08:30;;;;;;;25.02;13.68;;;;;;;-142.75;69.29;77172.69;4991815;28;20041;-82
2021/05/18 01:10:56;;;;;;;28.92;13.38;;;;;;;-142.75;69.39;77174.66;4990319;28;20023;-83
2021/05/18 01:13:21;;;;;;;30.80;13.68;;;;;;;-142.75;69.68;77184.50;4968734;28;20027;-84
2021/05/18 01:15:46;;;;;;;35.60;14.32;;;;;;;-142.75;69.87;77188.44;4967379;28;20042;-84
2021/05/18 01:18:12;;;;;;;24.52;12.55;;;;;;;-142.75;70.03;77192.38;4988253;28;20026;-83
2021/05/18 01:20:40;;;;;;;26.50;13.25;;;;;;;-142.75;70.21;77192.38;4970504;28;20034;-83
2021/05/18 01:23:05;;;;;;;32.05;15.48;;;;;;;-142.75;70.17;77192.38;4957179;28;20051;-82
2021/05/18 01:25:30;;;;;;;28.58;13.77;;;;;;;-142.75;70.05;77196.31;4963556;28;20038;-82
2021/05/18 01:27:56;;;;;;;25.75;14.65;;;;;;;-142.75;70.28;77190.41;4980930;28;20038;-83
2021/05/18 01:30:22;;;;;;;33.47;15.35;;;;;;;-142.75;70.30;77192.38;4963878;28;20026;-83
2021/05/18 01:32:47;;;;;;;31.83;15.65;;;;;;;-142.75;69.95;77180.56;4964259;28;20396;-84
2021/05/18 01:35:14;;;;;;;28.92;15.88;;;;;;;-142.75;70.18;77190.41;4982297;28;20072;-84
2021/05/18 01:37:41;;;;;;;29.15;16.95;;;;;;;-142.75;70.37;77194.34;4983267;28;20033;-83
2021/05/18 01:42:44;;;;;;;29.27;16.75;;;;;;;-142.75;70.30;77192.38;4990721;28;20033;-83
2021/05/18 01:42:59;;;;;;;25.98;14.77;;;;;;;-142.75;70.35;77184.50;4987178;28;20041;-83
2021/05/18 01:45:30;;;;;;;27.88;16.00;;;;;;;-142.75;70.34;77196.31;4964565;28;20114;-83
2021/05/18 01:47:58;;;;;;;31.10;16.30;;;;;;;-142.75;70.57;77196.31;4964363;28;20027;-82
2021/05/18 01:50:26;;;;;;;30.83;16.67;;;;;;;-142.75;70.60;77202.22;4967858;28;20023;-82
2021/05/18 01:52:52;;;;;;;29.20;15.32;;;;;;;-142.75;70.54;77192.38;4967732;28;20030;-82
2021/05/18 01:55:25;;;;;;;32.17;17.13;;;;;;;-142.75;70.46;77196.31;4959753;28;20380;-81
2021/05/18 01:57:51;;;;;;;38.38;17.02;;;;;;;-142.75;70.40;77188.44;4986421;28;20031;-82
2021/05/18 02:00:19;;;;;;;35.60;17.35;;;;;;;-142.75;70.37;77198.28;4987100;28;20407;-81
2021/05/18 02:02:44;;;;;;;37.45;18.20;;;;;;;-142.75;70.49;77192.38;4969189;28;20025;-82
2021/05/18 02:05:12;;;;;;;32.28;16.83;;;;;;;-142.75;70.49;77194.34;4964629;28;20018;-83
2021/05/18 02:07:41;;;;;;;30.00;16.75;;;;;;;-142.75;70.40;77196.31;4982071;28;20538;-82
2021/05/18 02:10:09;;;;;;;31.35;17.05;;;;;;;-142.75;70.48;77196.31;4985226;28;20027;-82
2021/05/18 02:12:35;;;;;;;31.73;16.95;;;;;;;-142.75;70.69;77196.31;4984298;28;20412;-83
2021/05/18 02:17:49;;;;;;;33.50;15.95;;;;;;;-142.75;70.68;77196.31;4984233;28;20045;-83
2021/05/18 02:20:33;;;;;;;30.17;17.98;;;;;;;-142.75;70.76;77198.28;4982551;28;20083;-84
2021/05/18 02:25:42;;;;;;;31.05;16.45;;;;;;;-142.75;70.79;77196.31;4981651;28;20037;-83
2021/05/18 02:28:08;;;;;;;25.83;15.02;;;;;;;-142.75;70.75;77204.19;4984378;28;20026;-84
2021/05/18 02:30:34;;;;;;;;;;;;;;;-142.75;70.81;77206.16;4982103;28;20018;-83
2021/05/18 02:32:59;;;;;;;31.75;18.02;;;;;;;-142.75;70.86;77210.09;4988073;23;19928;-83
2021/05/18 02:35:25;;;;;;;34.95;17.73;;;;;;;-142.75;70.84;77212.06;4982548;28;20025;-83
2021/05/18 02:37:50;;;;;;;38.00;19.05;;;;;;;-142.75;70.76;77212.06;4981585;28;20026;-83
2021/05/18 02:40:23;;;;;;;27.65;16.77;;;;;;;-142.75;70.90;77214.03;4980538;28;20030;-82
2021/05/18 02:42:50;;;;;;;33.97;17.73;;;;;;;-142.75;70.89;77217.97;4964699;28;20122;-83
2021/05/18 02:50:28;;;;;;;32.97;16.73;;;;;;;-142.75;71.06;77231.75;4964566;28;20045;-81
2021/05/18 02:52:53;;;;;;;30.20;18.45;;;;;;;-142.75;70.88;77210.09;4960224;28;20110;-83
2021/05/18 02:55:25;;;;;;;32.13;18.05;;;;;;;-142.75;70.64;77217.97;4957379;28;20031;-81
2021/05/18 02:57:52;;;;;;;25.52;16.70;;;;;;;-142.75;70.56;77239.63;4961532;28;20035;-82
2021/05/18 03:00:21;;;;;;;33.10;16.92;;;;;;;-142.75;70.65;77245.53;4960396;28;20042;-82
2021/05/18 03:02:48;;;;;;;31.25;16.75;;;;;;;-142.75;70.58;77235.69;4958563;28;20076;-82
2021/05/18 03:05:13;;;;;;;24.20;14.43;;;;;;;-142.75;70.52;77239.63;4960364;28;20026;-83
2021/05/18 03:07:39;;;;;;;26.58;14.55;;;;;;;-142.75;70.30;77239.63;4960307;28;20027;-84
2021/05/18 03:10:05;;;;;;;19.85;13.18;;;;;;;-142.75;70.40;77245.53;4964694;28;20058;-81
2021/05/18 03:12:31;;;;;;;24.02;13.15;;;;;;;-142.75;70.22;77263.25;4955916;28;20035;-82
2021/05/18 03:14:57;;;;;;;23.10;13.30;;;;;;;-142.75;70.49;77271.13;4961510;28;20027;-82
2021/05/18 03:17:22;;;;;;;20.67;12.95;;;;;;;-142.75;70.70;77277.03;4957374;28;20035;-82
2021/05/18 03:19:47;;;;;;;17.95;10.95;;;;;;;-142.75;70.96;77267.19;4956664;28;20385;-81
2021/05/18 03:22:12;;;;;;;18.67;11.40;;;;;;;-142.75;70.74;77255.38;4960256;28;20064;-83
2021/05/18 03:24:41;;;;;;;21.02;11.25;;;;;;;-142.75;70.63;77251.44;4962680;28;20027;-82
2021/05/18 03:27:08;;;;;;;18.50;10.38;;;;;;;-142.75;70.45;77233.72;4954903;28;20424;-82
2021/05/18 03:29:33;;;;;;;;;;;;;;;-142.75;70.50;77243.56;4964320;28;20023;-83
2021/05/18 03:34:43;;;;;;;14.52;9.32;;;;;;;-142.75;70.44;77227.81;4955423;28;20046;-81
2021/05/18 03:37:24;;;;;;;16.88;9.65;;;;;;;-142.75;70.52;77235.69;4959565;28;20026;-82
2021/05/18 03:39:52;;;;;;;15.85;9.35;;;;;;;-142.75;70.55;77239.63;4962235;28;20046;-80
2021/05/18 03:42:29;;;;;;;17.27;8.98;;;;;;;-142.75;70.72;77239.63;4959304;28;20057;-82
2021/05/18 04:11:50;;;;;;;17.23;9.95;;;;;;;-142.75;70.23;77225.84;4963849;28;20644;-82
2021/05/18 04:17:00;;;;;;;19.08;10.27;;;;;;;-142.75;70.12;77219.94;4965937;28;20416;-83
2021/05/18 04:19:30;;;;;;;;;;;;;;;-142.75;69.91;77208.13;4963387;28;20471;-81
2021/05/18 04:22:15;;;;;;;13.70;8.85;;;;;;;-142.75;69.72;77212.06;4965523;28;19997;-81
2021/05/18 04:48:13;;;;;;;17.10;11.57;;;;;;;-142.75;69.75;77194.34;4966459;28;20418;-82
2021/05/18 04:54:17;;;;;;;26.63;11.75;;;;;;;-142.75;69.63;77188.44;4973775;28;20107;-82
2021/05/18 05:15:29;;;;;;;23.65;11.98;;;;;;;-142.75;68.29;77182.53;4972481;28;20038;-81
2021/05/18 05:17:55;;;;;;;19.08;12.70;;;;;;;-142.75;68.66;77178.59;4967043;28;20023;-80
2021/05/18 05:20:20;;;;;;;21.38;12.80;;;;;;;-142.75;68.43;77170.72;4965768;28;20019;-80
2021/05/18 05:22:45;;;;;;;22.95;12.90;;;;;;;-142.75;68.05;77164.81;4967491;28;20027;-81
2021/05/18 05:25:11;;;;;;;26.15;13.13;;;;;;;-142.75;68.30;77168.75;4970835;28;20023;-81
2021/05/18 05:27:36;;;;;;;23.05;13.98;;;;;;;-142.75;68.08;77164.81;4965888;28;20260;-80
2021/05/18 05:30:02;;;;;;;24.15;13.43;;;;;;;-142.75;67.69;77156.94;4970095;28;20027;-80
2021/05/18 05:32:28;;;;;;;21.52;13.18;;;;;;;-142.75;67.46;77149.06;4969507;28;20035;-80
2021/05/18 05:34:53;;;;;;;24.80;15.23;;;;;;;-142.75;67.71;77125.44;4967204;28;20065;-80
2021/05/18 05:37:18;;;;;;;25.20;14.23;;;;;;;-142.75;67.07;77091.97;4969715;28;20027;-82
2021/05/18 05:39:43;;;;;;;26.33;15.32;;;;;;;-142.75;66.70;77072.28;4969357;28;20032;-78
2021/05/18 05:42:09;;;;;;;28.63;14.85;;;;;;;-142.75;66.36;77066.38;4965605;28;20453;-78
2021/05/18 05:44:34;;;;;;;25.05;14.70;;;;;;;-142.75;66.69;77066.38;4965654;28;20054;-82
2021/05/18 05:46:59;;;;;;;28.15;14.90;;;;;;;-142.75;66.57;77052.59;4968140;28;20029;-83
2021/05/18 05:49:25;;;;;;;24.38;13.80;;;;;;;-142.75;65.20;77062.44;4965971;28;20023;-79
2021/05/18 05:51:52;;;;;;;28.88;13.75;;;;;;;-142.75;65.36;77052.59;4964138;28;20031;-80
2021/05/18 05:54:19;;;;;;;23.35;14.70;;;;;;;-142.75;65.81;77064.41;4961933;28;20022;-79
2021/05/18 05:56:44;;;;;;;21.80;13.65;;;;;;;-142.75;65.06;77080.16;4963387;28;20033;-79
2021/05/18 05:59:10;;;;;;;24.20;14.35;;;;;;;-142.75;65.58;77090.00;4961331;28;20027;-81
2021/05/18 06:01:36;;;;;;;21.77;15.40;;;;;;;-142.75;65.34;77099.84;4963516;28;20456;-78
2021/05/18 06:04:02;;;;;;;23.42;13.38;;;;;;;-142.75;65.48;77076.22;4962947;28;20492;-81
2021/05/18 06:06:27;;;;;;;20.85;13.45;;;;;;;-142.75;65.68;77074.25;4964610;28;20031;-78
2021/05/18 06:08:53;;;;;;;28.35;15.02;;;;;;;-142.75;64.91;76999.44;4965031;28;20030;-78
2021/05/18 06:11:31;;;;;;;25.23;14.60;;;;;;;-142.75;62.96;76897.06;4965703;28;20080;-78
2021/05/18 06:14:26;;;;;;;22.92;13.82;;;;;;;-142.75;61.47;76816.34;4965331;28;20035;-79
2021/05/18 06:48:36;;;;;;;13.75;7.85;;;;;;;-142.75;52.11;76582.09;4969375;28;20034;-76
2021/05/18 06:51:02;;;;;;;;;;;;;;;-142.75;53.49;76704.16;4966250;28;20094;-80
2021/05/18 06:53:30;;;;;;;16.30;8.40;;;;;;;-142.75;54.22;76696.28;4978557;28;19966;-80
2021/05/18 06:55:57;;;;;;;15.18;8.43;;;;;;;-142.75;52.37;76562.41;4962023;28;20488;-79
2021/05/18 07:01:08;;;;;;;14.52;8.35;;;;;;;-142.75;50.33;76428.56;4962873;28;20031;-85
2021/05/18 07:03:38;;;;;;;12.85;7.95;;;;;;;-142.75;49.60;76328.19;4962588;28;20030;-80
2021/05/18 07:11:03;;;;;;;12.10;6.28;;;;;;;-142.75;45.43;76125.44;4967328;28;20030;-81
2021/05/18 07:13:29;;;;;;;;;;;;;;;-142.75;46.11;76178.59;4963031;28;20050;-80
2021/05/18 07:15:54;;;;;;;10.88;6.90;;;;;;;-142.75;45.24;76113.63;4961429;28;19918;-82
2021/05/18 07:18:20;;;;;;;;;;;;;;;-142.75;44.50;76044.75;4961619;28;20035;-82
2021/05/18 07:20:45;;;;;;;11.60;6.93;;;;;;;-142.75;44.32;75981.75;4978936;28;19913;-80
2021/05/18 07:23:16;;;;;;;13.82;7.05;;;;;;;-142.75;43.37;76109.69;4962757;28;20416;-79
2021/05/18 07:25:42;;;;;;;14.30;7.68;;;;;;;-142.75;44.46;76117.56;4962509;28;20419;-82
2021/05/18 07:28:08;;;;;;;11.40;6.68;;;;;;;-142.75;43.09;76137.25;4960139;28;20035;-81
2021/05/18 07:30:36;;;;;;;10.55;6.10;;;;;;;-142.75;44.42;76060.50;4959236;28;20023;-81
2021/05/18 07:33:02;;;;;;;10.20;5.80;;;;;;;-142.75;42.64;76017.19;4961107;28;20023;-80
2021/05/18 07:35:27;;;;;;;12.65;6.38;;;;;;;-142.75;41.58;76005.38;4962853;28;20400;-79
2021/05/18 07:37:55;;;;;;;;;;;;;;;-142.75;42.84;75985.69;4962537;28;20117;-80
2021/05/18 07:40:27;;;;;;;10.90;6.05;;;;;;;-142.75;41.17;75952.25;4960036;28;19914;-81
2021/05/18 07:42:58;;;;;;;11.55;6.25;;;;;;;-142.75;41.81;75881.38;4965932;28;20125;-80
2021/05/18 07:45:29;;;;;;;11.05;6.47;;;;;;;-142.75;41.72;75999.47;4964357;28;20034;-79
2021/05/18 08:07:12;;;;;;;10.50;5.25;;;;;;;-142.75;41.41;75916.81;4963530;28;20112;-82
2021/05/18 08:09:47;;;;;;;8.05;4.82;;;;;;;-142.75;41.31;75822.34;4963949;28;20470;-81
2021/05/18 08:12:12;;;;;;;7.55;4.45;;;;;;;-142.75;39.93;75814.47;4964180;28;20034;-81
2021/05/18 08:14:42;;;;;;;8.70;4.18;;;;;;;-142.75;39.83;75845.97;4968436;28;20031;-81
2021/05/18 08:17:15;;;;;;;9.02;4.07;;;;;;;-142.75;39.34;75784.94;4965049;28;20114;-84
2021/05/18 08:22:54;;;;;;;7.93;3.70;;;;;;;-142.75;38.78;75808.56;4965555;28;20043;-82
2021/05/18 09:50:53;;;;;;;7.50;4.10;;;;;;;-142.75;42.86;76233.69;4968829;28;20225;-78
2021/05/18 10:36:12;;;;;;;5.05;2.28;;;;;;;-142.75;41.76;76562.41;4959404;28;20009;-77
2021/05/18 10:38:44;;;;;;;5.55;2.22;;;;;;;-142.75;42.45;76499.44;4958819;28;20551;-74
2021/05/18 10:41:27;;;;;;;5.65;2.45;;;;;;;-142.75;41.71;76294.72;4960990;28;20058;-74
2021/05/18 10:43:56;;;;;;;6.82;2.45;;;;;;;-142.75;39.52;76113.63;4968970;28;20056;-78
2021/05/18 10:46:28;;;;;;;6.53;1.90;;;;;;;-142.75;37.01;76113.63;4969942;28;20030;-77
2021/05/18 10:49:04;;;;;;;7.63;2.17;;;;;;;-142.75;39.62;76290.78;4962967;28;20027;-76
2021/05/18 10:51:42;;;;;;;5.40;1.70;;;;;;;-142.75;40.02;76284.88;4967288;28;20019;-76
2021/05/18 10:54:28;;;;;;;6.00;1.88;;;;;;;-142.75;38.50;76123.47;4967768;28;20038;-77
2021/05/18 10:56:53;;;;;;;7.72;2.10;;;;;;;-142.75;38.16;75971.91;4962995;28;20042;-77
2021/05/18 10:59:19;;;;;;;2.67;1.50;;;;;;;-142.75;35.98;76011.28;4959941;28;20039;-77
2021/05/18 11:01:45;;;;;;;5.10;1.65;;;;;;;-142.75;37.14;76196.31;4964294;28;20439;-75
2021/05/18 11:04:12;;;;;;;4.47;1.83;;;;;;;-142.75;38.54;76235.66;4967302;28;20026;-74
2021/05/18 11:07:02;;;;;;;4.00;1.15;;;;;;;-142.75;39.68;76257.31;4969336;28;20045;-74
2021/05/18 11:09:28;;;;;;;3.38;1.92;;;;;;;-142.75;39.49;76101.81;4962906;28;20109;-76
2021/05/18 11:12:00;;;;;;;6.20;2.38;;;;;;;-142.75;36.73;76127.41;4960230;28;20024;-77
2021/05/18 11:14:35;;;;;;;6.88;2.67;;;;;;;-142.75;37.23;76153.00;4954791;28;20027;-76
2021/05/18 11:17:07;;;;;;;3.47;2.20;;;;;;;-142.75;38.71;76143.16;4967212;28;20030;-77
2021/05/18 11:19:33;;;;;;;3.50;1.73;;;;;;;-142.75;37.37;76062.47;4968860;28;20118;-76
2021/05/18 11:22:00;;;;;;;5.78;1.80;;;;;;;-142.75;36.21;76058.53;4962071;28;20396;-77
2021/05/18 11:24:25;;;;;;;6.15;1.98;;;;;;;-142.75;35.42;76007.34;4950745;28;20027;-76
2021/05/18 11:26:50;;;;;;;4.28;1.95;;;;;;;-142.75;35.23;76013.25;4967255;28;20034;-77
2021/05/18 11:29:36;;;;;;;5.95;2.63;;;;;;;-142.75;35.95;76017.19;4957744;28;20027;-75
2021/05/18 11:32:10;;;;;;;6.25;2.45;;;;;;;-142.75;37.10;76145.13;4960676;28;20027;-77
2021/05/18 11:34:59;;;;;;;5.10;2.30;;;;;;;-142.75;38.31;76117.56;4956278;28;20027;-77
2021/05/18 11:37:26;;;;;;;3.95;2.20;;;;;;;-142.75;37.63;76280.94;4958803;28;20031;-76
2021/05/18 11:40:16;;;;;;;5.13;2.05;;;;;;;-142.75;40.31;76324.25;4965445;28;20031;-76
2021/05/18 11:42:42;;;;;;;6.80;2.35;;;;;;;-142.75;38.66;76296.69;4969877;28;20019;-77
2021/05/18 11:45:19;;;;;;;4.63;2.63;;;;;;;-142.75;38.32;76302.59;4959430;28;20027;-76
2021/05/18 11:47:48;;;;;;;5.60;1.90;;;;;;;-142.75;38.98;76318.34;4959160;28;20038;-76
2021/05/18 11:50:26;;;;;;;6.90;1.80;;;;;;;-142.75;38.85;76371.47;4952552;28;20031;-76
2021/05/18 11:52:53;;;;;;;5.50;1.95;;;;;;;-142.75;38.35;76383.28;4956243;28;20079;-76
2021/05/18 11:55:31;;;;;;;7.82;2.30;;;;;;;-142.75;39.25;76410.84;4960540;28;20479;-76
2021/05/18 11:57:57;;;;;;;4.43;1.90;;;;;;;-142.75;39.98;76442.34;4966359;28;20518;-75
2021/05/18 12:00:26;;;;;;;4.35;1.98;;;;;;;-142.75;41.90;76467.94;4960278;28;20084;-76
2021/05/18 12:03:09;;;;;;;5.20;1.92;;;;;;;-142.75;40.61;76471.88;4953583;28;20062;-77
2021/05/18 12:05:57;;;;;;;6.20;1.90;;;;;;;-142.75;40.76;76519.13;4963772;28;20042;-78
2021/05/18 12:08:55;;;;;;;5.72;1.95;;;;;;;-142.75;41.24;76495.50;4964303;28;20408;-76
2021/05/18 12:11:20;;;;;;;4.53;1.77;;;;;;;-142.75;42.81;76483.69;4957254;28;20035;-75
2021/05/18 12:13:47;;;;;;;;;;;;;;;-142.75;41.40;76446.28;4960491;28;20033;-76
2021/05/18 12:16:14;;;;;;;6.13;1.80;;;;;;;-142.75;40.28;76440.38;4956167;28;19914;-77
2021/05/18 12:18:42;;;;;;;3.72;1.23;;;;;;;-142.75;38.88;76458.09;4957926;28;20046;-76
2021/05/18 12:21:13;;;;;;;3.45;1.30;;;;;;;-142.75;39.55;76456.13;4959271;28;20030;-77
2021/05/18 12:23:39;;;;;;;3.53;1.65;;;;;;;-142.75;40.44;76519.13;4957409;28;20404;-76
2021/05/18 12:26:11;;;;;;;;;;;;;;;-142.75;39.83;76538.78;4959336;28;20027;-77
2021/05/18 12:28:36;;;;;;;3.45;1.30;;;;;;;-142.75;41.01;76550.59;4966020;28;20291;-76
2021/05/18 12:31:02;;;;;;;;;;;;;;;-142.75;40.56;76591.94;4965336;28;20039;-76
2021/05/18 12:33:35;;;;;;;8.18;1.30;;;;;;;-142.75;40.52;76625.41;4955195;28;19997;-77
2021/05/18 12:36:04;;;;;;;3.15;1.15;;;;;;;-142.75;40.57;76615.56;4965149;28;20050;-77
2021/05/18 12:38:30;;;;;;;4.35;1.27;;;;;;;-142.75;39.86;76601.78;4965742;28;20504;-76
2021/05/18 12:41:05;;;;;;;3.30;0.98;;;;;;;-142.75;41.52;76595.88;4960341;28;20101;-76
2021/05/18 12:43:39;;;;;;;2.15;0.93;;;;;;;-142.75;41.31;76621.47;4955156;28;20569;-74
2021/05/18 12:46:13;;;;;;;3.58;1.10;;;;;;;-142.75;40.57;76654.94;4973389;28;20031;-76
2021/05/18 12:48:40;;;;;;;4.47;1.00;;;;;;;-142.75;42.75;76631.31;4959961;28;20027;-76
2021/05/18 12:51:15;;;;;;;3.70;1.10;;;;;;;-142.75;42.67;76619.50;4966861;28;20023;-76
2021/05/18 12:53:41;;;;;;;2.50;1.23;;;;;;;-142.75;41.50;76619.50;4973237;28;20369;-76
2021/05/18 12:56:08;;;;;;;;;;;;;;;-142.75;42.92;76637.22;4961458;28;20042;-77
2021/05/18 12:58:35;;;;;;;6.72;1.73;;;;;;;-142.75;41.96;76686.44;4961399;28;19914;-76
2021/05/18 13:01:18;;;;;;;2.97;1.23;;;;;;;-142.75;42.73;76727.78;4954771;28;20506;-75
2021/05/18 13:03:44;;;;;;;5.57;1.65;;;;;;;-142.75;43.05;76739.59;4959024;28;20028;-76
2021/05/18 13:06:10;;;;;;;4.13;1.85;;;;;;;-142.75;42.89;76761.25;4956024;28;20435;-77
2021/05/18 13:08:38;;;;;;;6.57;1.95;;;;;;;-142.75;44.61;76769.13;4972070;28;20054;-76
2021/05/18 13:11:12;;;;;;;6.45;1.95;;;;;;;-142.75;45.04;76753.38;4959985;28;20126;-77
2021/05/18 13:13:38;;;;;;;5.72;1.60;;;;;;;-142.75;43.74;76743.53;4970285;28;20398;-76
2021/05/18 13:16:10;;;;;;;4.57;1.30;;;;;;;-142.75;43.21;76739.59;4964964;28;20031;-76
2021/05/18 13:18:54;;;;;;;5.43;1.23;;;;;;;-142.75;43.08;76733.69;4969988;28;20035;-76
2021/05/18 13:21:33;;;;;;;3.20;1.10;;;;;;;-142.75;43.48;76712.03;4967463;28;20035;-77
2021/05/18 13:26:31;;;;;;;3.08;1.25;;;;;;;-142.75;44.01;76719.91;4963024;28;20130;-76
2021/05/18 13:29:19;;;;;;;6.75;1.52;;;;;;;-142.75;43.74;76737.63;4966615;28;20037;-76
2021/05/18 13:31:49;;;;;;;3.92;1.80;;;;;;;-142.75;46.52;76763.22;4965651;28;20023;-76
2021/05/18 13:34:15;;;;;;;3.97;1.27;;;;;;;-142.75;45.20;76771.09;4953480;28;20031;-76
2021/05/18 13:36:42;;;;;;;5.30;1.40;;;;;;;-142.75;44.52;76780.94;4961203;28;20090;-76
2021/05/18 13:39:12;;;;;;;3.35;1.35;;;;;;;-142.75;44.06;76806.50;4972565;28;20034;-76
2021/05/18 13:41:38;;;;;;;8.02;1.20;;;;;;;-142.75;44.61;76802.56;4957063;28;20177;-76
2021/05/18 13:44:05;;;;;;;4.50;1.30;;;;;;;-142.75;46.18;76778.97;4952659;28;20024;-76
2021/05/18 13:46:30;;;;;;;2.50;0.85;;;;;;;-142.75;45.13;76755.34;4962824;28;20483;-77
2021/05/18 13:48:56;;;;;;;2.85;0.82;;;;;;;-142.75;44.97;76775.03;4959213;28;20034;-76
2021/05/18 13:51:21;;;;;;;;;;;;;;;-142.75;43.91;76747.47;4963671;28;20149;-75
2021/05/18 13:53:47;;;;;;;3.33;0.82;;;;;;;-142.75;45.56;76769.13;4953844;28;20342;-76
2021/05/18 13:56:13;;;;;;;2.30;0.55;;;;;;;-142.75;44.12;76763.22;4968876;28;20034;-76
2021/05/18 13:58:38;;;;;;;4.50;0.75;;;;;;;-142.75;45.73;76757.31;4970225;28;20039;-76
2021/05/18 14:01:08;;;;;;;3.38;0.60;;;;;;;-142.75;44.13;76751.41;4957463;28;20102;-76
2021/05/18 14:03:34;;;;;;;2.38;0.70;;;;;;;-142.75;45.19;76755.34;4957549;28;20491;-76
2021/05/18 14:06:01;;;;;;;2.45;0.60;;;;;;;-142.75;45.15;76784.88;4960622;28;20026;-76
2021/05/18 14:08:31;;;;;;;3.28;0.75;;;;;;;-142.75;45.56;76794.69;4970620;28;20102;-76
2021/05/18 14:10:58;;;;;;;2.80;0.70;;;;;;;-142.75;45.39;76784.88;4952095;28;20030;-76
2021/05/18 14:13:25;;;;;;;5.03;0.75;;;;;;;-142.75;46.57;76796.69;4962565;28;20094;-76
2021/05/18 14:15:51;;;;;;;4.95;0.82;;;;;;;-142.75;46.05;76814.38;4955233;28;20037;-77
2021/05/18 14:18:17;;;;;;;4.88;0.98;;;;;;;-142.75;44.49;76798.66;4951179;28;20102;-75
2021/05/18 14:20:43;;;;;;;4.38;0.85;;;;;;;-142.75;44.66;76802.56;4952088;28;20030;-76
2021/05/18 14:23:10;;;;;;;3.75;1.00;;;;;;;-142.75;45.44;76810.44;4962993;28;20030;-77
2021/05/18 14:25:37;;;;;;;2.75;0.80;;;;;;;-142.75;44.86;76812.41;4954395;28;20066;-76
2021/05/18 14:28:03;;;;;;;5.60;0.88;;;;;;;-142.75;44.92;76808.50;4967826;28;20023;-76
2021/05/18 14:30:29;;;;;;;7.20;1.10;;;;;;;-142.75;44.97;76808.50;4952620;28;20041;-76
2021/05/18 14:32:55;;;;;;;1.95;0.80;;;;;;;-142.75;45.24;76806.50;4990859;23;20047;-75
2021/05/18 14:35:21;;;;;;;3.20;1.00;;;;;;;-142.75;44.47;76806.50;5006607;28;20439;-74
2021/05/18 14:37:51;;;;;;;3.08;0.90;;;;;;;-142.75;45.91;76796.69;4995950;28;20022;-76
2021/05/18 14:45:21;;;;;;;4.63;1.17;;;;;;;-142.75;44.35;76798.66;5009040;28;20109;-73
2021/05/18 14:55:45;;;;;;;4.22;1.20;;;;;;;-142.75;45.81;76794.69;4988886;28;20442;-74
2021/05/18 14:58:10;;;;;;;3.65;1.02;;;;;;;-142.75;46.03;76816.34;5056385;28;20038;-74
2021/05/18 15:00:38;;;;;;;;;;;;;;;-142.75;43.95;76820.28;4989927;28;20391;-75
2021/05/18 15:03:04;;;;;;;5.75;0.73;;;;;;;-142.75;45.30;76818.31;5073719;28;19925;-74
2021/05/18 15:05:29;;;;;;;4.00;0.80;;;;;;;-142.75;45.79;76832.09;5075797;28;20033;-75
2021/05/18 15:07:54;;;;;;;;;;;;;;;-142.75;45.96;76804.53;5008847;28;20045;-74
2021/05/18 15:10:19;;;;;;;5.82;1.15;;;;;;;-142.75;46.25;76786.84;5075972;28;19958;-76
2021/05/18 15:12:45;;;;;;;;;;;;;;;-142.75;44.00;76806.50;5072708;28;20475;-75
2021/05/18 15:15:11;;;;;;;3.05;0.90;;;;;;;-142.75;43.81;76838.00;5071674;28;20008;-74
2021/05/18 15:17:36;;;;;;;;;;;;;;;-142.75;44.39;76855.72;5008646;28;20033;-74
2021/05/18 15:20:03;;;;;;;2.38;0.85;;;;;;;-142.75;45.44;76843.91;4997302;28;19913;-75
2021/05/18 15:22:29;;;;;;;3.70;0.80;;;;;;;-142.75;44.93;76857.69;5055693;28;20026;-75
2021/05/18 15:24:55;;;;;;;4.35;0.90;;;;;;;-142.75;44.32;76845.88;5007984;28;20043;-75
2021/05/18 15:27:20;;;;;;;4.00;1.15;;;;;;;-142.75;44.57;76879.34;5008590;28;20526;-75
2021/05/18 15:29:46;;;;;;;;;;;;;;;-142.75;44.88;76897.06;5008623;28;20440;-74
2021/05/18 15:32:11;;;;;;;2.45;0.68;;;;;;;-142.75;43.74;76871.47;5008003;28;19952;-74
2021/05/18 15:34:36;;;;;;;;;;;;;;;-142.75;46.07;76881.31;5008526;28;20044;-75
2021/05/18 15:37:02;;;;;;;3.60;1.00;;;;;;;-142.75;44.83;76857.69;5007917;28;19914;-74
2021/05/18 15:39:28;;;;;;;5.13;1.10;;;;;;;-142.75;44.16;76849.81;5008220;28;20030;-74
2021/05/18 15:41:53;;;;;;;;;;;;;;;-142.75;44.42;76855.72;5008545;28;20065;-75
2021/05/18 15:44:19;;;;;;;3.70;1.60;;;;;;;-142.75;43.18;76867.53;5006530;28;20406;-74
2021/05/18 15:46:45;;;;;;;3.65;1.80;;;;;;;-142.75;44.64;76893.13;5066741;28;20441;-75
2021/05/18 15:49:11;;;;;;;4.70;1.25;;;;;;;-142.75;45.43;76924.63;4986719;28;20038;-74
2021/05/18 15:51:36;;;;;;;;;;;;;;;-142.75;44.00;76901.00;5054199;28;20483;-73
2021/05/18 15:54:02;;;;;;;2.40;0.90;;;;;;;-142.75;44.40;76895.09;4986859;28;19913;-74
2021/05/18 15:56:27;;;;;;;3.40;0.98;;;;;;;-142.75;43.83;76940.38;5053685;28;20126;-76
2021/05/18 15:58:52;;;;;;;;;;;;;;;-142.75;43.78;76918.72;4986903;28;20104;-74
2021/05/18 16:01:18;;;;;;;2.35;0.95;;;;;;;-142.75;44.37;76918.72;4985755;28;19914;-75
2021/05/18 16:03:43;;;;;;;;;;;;;;;-142.75;45.08;76906.91;5001214;28;20430;-76
2021/05/18 16:06:08;;;;;;;6.45;1.10;;;;;;;-142.75;44.47;76922.66;5065360;28;19925;-73
2021/05/18 16:11:02;;;;;;;5.82;1.10;;;;;;;-142.75;44.75;76928.56;5007839;28;20412;-75
2021/05/18 16:13:28;;;;;;;4.22;1.35;;;;;;;-142.75;44.96;76934.47;5007087;28;20030;-76
2021/05/18 16:16:15;;;;;;;2.95;1.10;;;;;;;-142.75;44.97;76960.06;5061528;28;20467;-75
2021/05/18 16:18:41;;;;;;;3.45;1.02;;;;;;;-142.75;45.21;76924.63;5056103;28;20499;-74
2021/05/18 16:21:07;;;;;;;3.65;1.00;;;;;;;-142.75;45.94;76934.47;4988621;28;20122;-74
2021/05/18 16:23:35;;;;;;;2.67;1.30;;;;;;;-142.75;44.64;76916.75;4988276;28;20022;-72
2021/05/18 16:26:00;;;;;;;3.90;1.10;;;;;;;-142.75;42.82;76916.75;5055425;28;20070;-74